createdAt,value
2022-11-16T00:02:16.322Z,23.57
2022-11-16T00:04:43.998Z,24.10
2022-11-16T00:07:11.775Z,24.57
2022-11-16T00:09:39.490Z,25.70
2022-11-16T00:12:10.989Z,27.23
2022-11-16T00:14:38.549Z,27.13
2022-11-16T00:17:06.197Z,27.57
2022-11-16T00:19:33.718Z,25.27
2022-11-16T00:22:01.278Z,26.83
2022-11-16T00:24:28.800Z,26.93
2022-11-16T00:26:56.646Z,26.77
2022-11-16T00:29:26.626Z,27.80
2022-11-16T00:31:55.551Z,26.87
2022-11-16T00:34:24.656Z,29.97
2022-11-16T00:36:52.501Z,28.23
2022-11-16T00:39:20.932Z,26.77
2022-11-16T00:41:49.691Z,25.37
2022-11-16T00:44:18.904Z,26.43
2022-11-16T00:46:46.562Z,24.57
2022-11-16T00:49:14.298Z,26.00
2022-11-16T00:51:42.137Z,26.27
2022-11-16T00:54:10.734Z,27.13
2022-11-16T00:56:39.740Z,24.60
2022-11-16T00:59:07.871Z,25.70
2022-11-16T01:01:35.426Z,25.77
2022-11-16T01:04:03.136Z,24.87
2022-11-16T01:06:30.778Z,25.30
2022-11-16T01:08:58.280Z,26.07
2022-11-16T01:11:44.249Z,26.40
2022-11-16T01:14:12.093Z,26.20
2022-11-16T01:16:39.962Z,24.90
2022-11-16T01:19:08.513Z,25.97
2022-11-16T01:21:36.881Z,46.00
2022-11-16T01:24:04.608Z,41.13
2022-11-16T01:26:32.119Z,35.37
2022-11-16T01:29:00.240Z,32.53
2022-11-16T01:31:32.142Z,27.20
2022-11-16T01:34:01.245Z,25.60
2022-11-16T01:36:30.165Z,25.27
2022-11-16T01:39:00.266Z,25.73
2022-11-16T01:41:34.197Z,28.77
2022-11-16T01:44:26.864Z,25.87
2022-11-16T01:46:59.551Z,24.97
2022-11-16T01:49:33.053Z,25.20
2022-11-16T01:52:10.114Z,24.37
2022-11-16T01:54:43.443Z,25.20
2022-11-16T01:57:18.194Z,27.13
2022-11-16T02:00:00.692Z,25.47
2022-11-16T02:02:42.025Z,25.03
2022-11-16T02:05:27.426Z,22.63
2022-11-16T02:08:48.987Z,22.77
2022-11-16T02:11:27.314Z,23.10
2022-11-16T02:14:00.978Z,22.97
2022-11-16T02:16:34.337Z,22.37
2022-11-16T02:19:23.796Z,22.73
2022-11-16T02:22:46.585Z,22.40
2022-11-16T02:26:09.057Z,22.30
2022-11-16T02:29:19.857Z,21.93
2022-11-16T02:32:15.484Z,25.97
2022-11-16T02:35:00.864Z,23.10
2022-11-16T02:37:35.204Z,22.37
2022-11-16T02:40:09.446Z,24.10
2022-11-16T02:42:45.783Z,22.80
2022-11-16T02:45:20.428Z,23.17
2022-11-16T02:47:50.890Z,24.77
2022-11-16T02:50:21.577Z,24.13
2022-11-16T02:52:49.356Z,23.07
2022-11-16T02:55:18.101Z,23.20
2022-11-16T02:58:02.558Z,23.97
2022-11-16T03:00:52.090Z,23.57
2022-11-16T03:03:51.006Z,21.90
2022-11-16T03:06:24.985Z,22.90
2022-11-16T03:09:12.540Z,21.43
2022-11-16T03:12:02.982Z,21.17
2022-11-16T03:14:45.983Z,22.33
2022-11-16T03:17:30.532Z,23.77
2022-11-16T03:20:17.748Z,28.17
2022-11-16T03:22:55.351Z,34.20
2022-11-16T03:25:29.685Z,30.30
2022-11-16T03:28:13.705Z,30.93
2022-11-16T03:30:50.028Z,31.13
2022-11-16T03:33:33.122Z,26.97
2022-11-16T03:36:28.130Z,29.70
2022-11-16T03:39:03.445Z,30.77
2022-11-16T03:41:36.828Z,29.57
2022-11-16T03:44:05.273Z,29.93
2022-11-16T03:46:32.784Z,27.73
2022-11-16T03:49:01.995Z,27.30
2022-11-16T03:51:34.415Z,27.10
2022-11-16T03:54:02.349Z,25.50
2022-11-16T03:56:29.938Z,26.70
2022-11-16T03:58:57.660Z,28.13
2022-11-16T04:01:25.281Z,26.43
2022-11-16T04:03:53.991Z,27.50
2022-11-16T04:06:50.571Z,28.07
2022-11-16T04:09:56.376Z,27.07
2022-11-16T04:12:42.676Z,28.90
2022-11-16T04:15:29.917Z,27.57
2022-11-16T04:18:17.511Z,27.63
2022-11-16T04:21:04.456Z,27.57
2022-11-16T04:23:51.057Z,29.53
2022-11-16T04:26:18.983Z,27.43
2022-11-16T04:28:47.494Z,29.03
2022-11-16T04:31:54.149Z,29.47
2022-11-16T04:34:40.215Z,30.37
2022-11-16T04:37:36.383Z,31.80
2022-11-16T04:40:06.187Z,30.73
2022-11-16T04:42:33.809Z,29.13
2022-11-16T04:45:19.802Z,28.70
2022-11-16T04:47:52.272Z,29.47
2022-11-16T04:50:21.935Z,31.33
2022-11-16T04:52:52.062Z,29.90
2022-11-16T04:55:21.028Z,28.23
2022-11-16T04:57:49.980Z,32.57
2022-11-16T05:00:18.970Z,33.47
2022-11-16T05:02:46.970Z,35.47
2022-11-16T05:05:15.001Z,36.20
2022-11-16T05:07:44.855Z,37.80
2022-11-16T05:10:19.395Z,48.90
2022-11-16T05:12:54.219Z,42.53
2022-11-16T05:15:22.806Z,42.37
2022-11-16T05:17:51.439Z,39.40
2022-11-16T05:20:41.543Z,37.30
2022-11-16T05:23:29.329Z,36.53
2022-11-16T05:26:01.445Z,33.40
2022-11-16T05:28:29.559Z,33.47
2022-11-16T05:30:57.826Z,33.67
2022-11-16T05:33:27.654Z,27.33
2022-11-16T05:35:55.264Z,25.90
2022-11-16T05:38:23.260Z,27.20
2022-11-16T05:40:55.260Z,29.37
2022-11-16T05:43:22.868Z,29.40
2022-11-16T05:46:01.433Z,26.63
2022-11-16T05:48:29.017Z,30.33
2022-11-16T05:51:01.135Z,30.80
2022-11-16T05:53:33.397Z,23.43
2022-11-16T05:56:03.083Z,28.40
2022-11-16T05:58:34.573Z,28.47
2022-11-16T06:01:02.520Z,25.50
2022-11-16T06:03:31.489Z,26.50
2022-11-16T06:06:00.275Z,24.90
2022-11-16T06:08:30.222Z,23.80
2022-11-16T06:11:05.638Z,24.23
2022-11-16T06:13:35.975Z,39.10
2022-11-16T06:16:05.388Z,20.37
2022-11-16T06:18:41.305Z,19.87
2022-11-16T06:21:10.845Z,15.13
2022-11-16T06:23:39.039Z,19.33
2022-11-16T06:26:07.751Z,15.50
2022-11-16T06:28:37.322Z,20.40
2022-11-16T06:31:05.700Z,18.20
2022-11-16T06:33:37.617Z,20.70
2022-11-16T06:36:09.888Z,19.33
2022-11-16T06:38:38.527Z,20.87
2022-11-16T06:41:06.278Z,16.83
2022-11-16T06:43:39.583Z,18.57
2022-11-16T06:46:07.588Z,18.33
2022-11-16T06:48:35.532Z,20.47
2022-11-16T06:51:07.832Z,18.17
2022-11-16T06:53:35.703Z,18.03
2022-11-16T06:56:05.867Z,19.80
2022-11-16T06:58:42.785Z,19.77
2022-11-16T07:01:12.819Z,20.67
2022-11-16T07:03:42.499Z,17.00
2022-11-16T07:06:13.199Z,19.73
2022-11-16T07:08:44.333Z,18.03
2022-11-16T07:11:13.270Z,17.93
2022-11-16T07:13:40.816Z,18.87
2022-11-16T07:16:11.953Z,20.73
2022-11-16T07:18:45.278Z,20.60
2022-11-16T07:21:16.540Z,21.70
2022-11-16T07:23:44.942Z,20.60
2022-11-16T07:26:17.877Z,21.20
2022-11-16T07:28:54.670Z,20.57
2022-11-16T07:31:23.471Z,20.97
2022-11-16T07:34:10.831Z,20.87
2022-11-16T07:36:49.566Z,20.80
2022-11-16T07:39:18.077Z,20.47
2022-11-16T07:41:47.032Z,20.77
2022-11-16T07:44:46.343Z,21.53
2022-11-16T07:47:15.205Z,22.33
2022-11-16T07:49:45.818Z,24.80
2022-11-16T07:52:19.174Z,28.83
2022-11-16T07:55:02.435Z,30.83
2022-11-16T07:57:31.185Z,30.63
2022-11-16T08:00:01.992Z,35.17
2022-11-16T08:02:40.915Z,57.67
2022-11-16T08:05:12.056Z,35.47
2022-11-16T08:07:40.561Z,36.17
2022-11-16T08:10:10.077Z,38.40
2022-11-16T08:12:37.607Z,35.60
2022-11-16T08:15:07.294Z,43.73
2022-11-16T08:17:34.831Z,40.10
2022-11-16T08:20:05.033Z,39.23
2022-11-16T08:22:32.547Z,41.47
2022-11-16T08:25:00.093Z,42.10
2022-11-16T08:27:27.631Z,41.27
2022-11-16T08:29:57.573Z,38.53
2022-11-16T08:32:25.113Z,39.63
2022-11-16T08:34:54.637Z,38.77
2022-11-16T08:37:22.746Z,41.83
2022-11-16T08:39:50.329Z,35.07
2022-11-16T08:42:19.646Z,43.43
2022-11-16T08:44:49.387Z,34.63
2022-11-16T08:47:19.400Z,34.33
2022-11-16T08:49:53.765Z,31.57
2022-11-16T08:52:22.986Z,29.30
2022-11-16T08:54:51.979Z,30.60
2022-11-16T08:57:19.545Z,30.27
2022-11-16T08:59:52.394Z,28.17
2022-11-16T09:02:25.514Z,29.00
2022-11-16T09:04:53.833Z,25.97
2022-11-16T09:07:21.928Z,28.57
2022-11-16T09:09:49.676Z,29.03
2022-11-16T09:12:17.844Z,28.33
2022-11-16T09:14:45.339Z,28.47
2022-11-16T09:17:12.813Z,28.40
2022-11-16T09:19:40.820Z,24.20
2022-11-16T09:22:08.678Z,24.07
2022-11-16T09:24:36.157Z,23.97
2022-11-16T09:27:03.776Z,24.70
2022-11-16T09:29:31.332Z,23.90
2022-11-16T09:32:00.227Z,24.83
2022-11-16T09:34:28.418Z,25.43
2022-11-16T09:36:58.703Z,26.67
2022-11-16T09:39:30.952Z,25.43
2022-11-16T09:42:20.055Z,26.40
2022-11-16T09:45:20.688Z,25.53
2022-11-16T09:47:57.566Z,25.57
2022-11-16T09:50:54.899Z,25.87
2022-11-16T09:53:45.037Z,26.83
2022-11-16T09:56:22.791Z,26.50
2022-11-16T09:59:12.209Z,25.80
2022-11-16T10:01:53.982Z,27.30
2022-11-16T10:04:37.015Z,25.70
2022-11-16T10:07:35.086Z,27.20
2022-11-16T10:10:02.757Z,25.87
2022-11-16T10:13:23.698Z,26.80
2022-11-16T10:16:32.439Z,27.07
2022-11-16T10:19:54.300Z,26.17
2022-11-16T10:22:43.885Z,24.00
2022-11-16T10:25:17.146Z,24.77
2022-11-16T10:28:24.054Z,24.17
2022-11-16T10:31:18.943Z,23.10
2022-11-16T10:33:50.961Z,25.27
2022-11-16T10:36:21.557Z,24.23
2022-11-16T10:38:49.342Z,25.20
2022-11-16T10:41:26.347Z,25.63
2022-11-16T10:43:58.242Z,25.50
2022-11-16T10:46:36.457Z,24.63
2022-11-16T10:49:48.015Z,25.57
2022-11-16T10:52:15.546Z,26.47
2022-11-16T10:54:44.474Z,26.47
2022-11-16T10:57:14.955Z,25.10
2022-11-16T10:59:56.346Z,25.07
2022-11-16T11:02:26.505Z,26.40
2022-11-16T11:05:08.173Z,25.13
2022-11-16T11:07:40.505Z,24.50
2022-11-16T11:10:36.201Z,25.17
2022-11-16T11:13:26.941Z,25.03
2022-11-16T11:16:16.230Z,24.27
2022-11-16T11:18:43.966Z,24.93
2022-11-16T11:21:24.236Z,23.97
2022-11-16T11:24:10.857Z,25.10
2022-11-16T11:26:52.298Z,24.97
2022-11-16T11:29:24.315Z,25.07
2022-11-16T11:32:00.357Z,24.60
2022-11-16T11:34:32.204Z,24.33
2022-11-16T11:37:04.586Z,27.17
2022-11-16T11:39:37.697Z,22.73
2022-11-16T11:42:13.771Z,24.97
2022-11-16T11:44:49.729Z,24.63
2022-11-16T11:47:58.589Z,24.50
2022-11-16T11:51:03.453Z,23.40
2022-11-16T11:53:57.116Z,24.53
2022-11-16T11:56:26.939Z,24.63
2022-11-16T11:58:55.776Z,25.77
2022-11-16T12:01:50.434Z,24.93
2022-11-16T12:04:35.462Z,24.50
2022-11-16T12:07:23.787Z,24.73
2022-11-16T12:10:18.301Z,25.43
2022-11-16T12:12:57.456Z,24.10
2022-11-16T12:15:36.095Z,24.07
2022-11-16T12:18:50.346Z,24.67
2022-11-16T12:22:09.934Z,24.83
2022-11-16T12:25:08.272Z,25.60
2022-11-16T12:28:21.835Z,25.53
2022-11-16T12:31:12.641Z,24.40
2022-11-16T12:33:54.805Z,22.93
2022-11-16T12:36:55.762Z,23.17
2022-11-16T12:40:08.162Z,22.23
2022-11-16T12:43:23.382Z,23.57
2022-11-16T12:46:48.146Z,24.87
2022-11-16T12:49:36.334Z,23.58
2022-11-16T12:52:26.699Z,24.53
2022-11-16T13:01:41.966Z,23.63
2022-11-16T13:04:24.812Z,23.60
2022-11-16T13:07:17.308Z,25.87
2022-11-16T13:09:51.585Z,27.60
2022-11-16T13:12:23.561Z,23.23
2022-11-16T13:14:54.951Z,22.23
2022-11-16T13:17:28.425Z,22.35
2022-11-16T13:20:40.535Z,24.80
2022-11-16T13:23:13.291Z,36.10
2022-11-16T13:25:57.290Z,39.08
2022-11-16T13:28:43.322Z,24.40
2022-11-16T13:31:36.104Z,25.83
2022-11-16T13:34:28.678Z,27.15
2022-11-16T13:36:56.153Z,25.85
2022-11-16T13:39:58.352Z,24.47
2022-11-16T13:42:27.924Z,24.87
2022-11-16T13:45:18.214Z,25.97
2022-11-16T13:47:55.098Z,26.07
2022-11-16T13:50:37.460Z,25.77
2022-11-16T13:54:04.069Z,29.87
2022-11-16T13:56:05.063Z,29.63
2022-11-16T13:58:35.512Z,29.83
2022-11-16T14:01:07.472Z,35.10
2022-11-16T14:03:40.843Z,39.37
2022-11-16T14:06:13.923Z,31.53
2022-11-16T14:08:44.723Z,27.77
2022-11-16T14:11:35.858Z,29.50
2022-11-16T14:15:12.708Z,35.00
2022-11-16T14:18:11.934Z,51.10
2022-11-16T14:20:58.122Z,60.70
2022-11-16T14:23:53.557Z,54.87
2022-11-16T14:26:45.646Z,33.83
2022-11-16T14:29:25.746Z,35.13
2022-11-16T14:31:58.277Z,34.90
2022-11-16T14:34:47.387Z,36.07
2022-11-16T14:37:28.344Z,37.80
2022-11-16T14:40:21.829Z,40.00
2022-11-16T14:43:19.826Z,40.70
2022-11-16T14:46:06.444Z,41.77
2022-11-16T14:48:45.355Z,42.20
2022-11-16T14:51:37.611Z,36.40
2022-11-16T14:54:27.348Z,33.43
2022-11-16T14:57:02.910Z,32.90
2022-11-16T14:59:31.772Z,38.17
2022-11-16T15:02:33.836Z,40.93
2022-11-16T15:05:01.482Z,41.73
2022-11-16T15:07:30.840Z,48.77
2022-11-16T15:10:01.310Z,59.10
2022-11-16T15:12:41.818Z,73.23
2022-11-16T15:15:17.046Z,77.57
2022-11-16T15:17:59.369Z,76.37
2022-11-16T15:20:35.118Z,67.60
2022-11-16T15:23:05.497Z,67.63
2022-11-16T15:25:35.230Z,65.33
2022-11-16T15:28:14.940Z,56.47
2022-11-16T15:30:49.858Z,49.40
2022-11-16T15:33:27.580Z,45.40
2022-11-16T15:35:56.004Z,46.07
2022-11-16T15:38:32.543Z,41.17
2022-11-16T15:41:05.482Z,40.47
2022-11-16T15:43:55.290Z,36.77
2022-11-16T15:46:33.130Z,38.17
2022-11-16T15:49:01.298Z,36.93
2022-11-16T15:51:32.554Z,37.13
2022-11-16T15:54:30.185Z,35.13
2022-11-16T15:57:12.098Z,32.13
2022-11-16T15:59:39.960Z,30.03
2022-11-16T16:02:20.126Z,31.10
2022-11-16T16:04:47.870Z,36.63
2022-11-16T16:07:42.541Z,37.90
2022-11-16T16:10:20.477Z,35.53
2022-11-16T16:12:52.319Z,33.67
2022-11-16T16:15:29.894Z,31.83
2022-11-16T16:18:38.321Z,40.00
2022-11-16T16:21:06.410Z,40.07
2022-11-16T16:23:43.656Z,40.37
2022-11-16T16:26:11.577Z,34.47
2022-11-16T16:28:39.624Z,33.53
2022-11-16T16:31:07.873Z,34.13
2022-11-16T16:33:37.529Z,34.67
2022-11-16T16:36:08.747Z,33.83
2022-11-16T16:38:44.282Z,33.23
2022-11-16T16:41:24.852Z,29.60
2022-11-16T16:43:54.090Z,29.47
2022-11-16T16:46:22.696Z,32.53
2022-11-16T16:48:58.290Z,31.73
2022-11-16T16:51:27.031Z,32.87
2022-11-16T16:53:57.760Z,33.47
2022-11-16T16:56:26.358Z,33.43
2022-11-16T16:58:54.583Z,35.30
2022-11-16T17:01:23.882Z,36.27
2022-11-16T17:03:51.628Z,40.37
2022-11-16T17:06:21.485Z,43.87
2022-11-16T17:08:49.849Z,37.73
2022-11-16T17:11:19.129Z,37.17
2022-11-16T17:13:47.126Z,35.67
2022-11-16T17:16:17.962Z,34.17
2022-11-16T17:18:47.938Z,34.33
2022-11-16T17:21:16.515Z,31.00
2022-11-16T17:23:45.114Z,32.83
2022-11-16T17:26:13.306Z,35.53
2022-11-16T17:28:40.971Z,38.67
2022-11-16T17:31:11.525Z,39.23
2022-11-16T17:33:42.316Z,38.67
2022-11-16T17:36:13.997Z,37.40
2022-11-16T17:38:41.850Z,38.13
2022-11-16T17:41:13.327Z,36.33
2022-11-16T17:43:43.465Z,35.00
2022-11-16T17:46:17.647Z,32.30
2022-11-16T17:48:47.800Z,33.43
2022-11-16T17:51:24.471Z,33.03
2022-11-16T17:53:55.369Z,35.97
2022-11-16T17:56:28.024Z,31.87
2022-11-16T17:59:04.904Z,33.53
2022-11-16T18:01:33.855Z,35.43
2022-11-16T18:04:02.593Z,45.33
2022-11-16T18:06:33.537Z,56.17
2022-11-16T18:09:02.663Z,68.27
2022-11-16T18:11:33.025Z,75.10
2022-11-16T18:14:01.975Z,62.93
2022-11-16T18:16:36.091Z,61.73
2022-11-16T18:19:07.518Z,57.77
2022-11-16T18:21:46.840Z,49.17
2022-11-16T18:24:15.650Z,37.77
2022-11-16T18:26:43.864Z,34.70
2022-11-16T18:29:36.353Z,27.33
2022-11-16T18:32:27.076Z,26.40
2022-11-16T18:34:56.801Z,27.03
2022-11-16T18:37:28.414Z,27.87
2022-11-16T18:40:01.157Z,32.97
2022-11-16T18:42:28.618Z,31.37
2022-11-16T18:44:59.002Z,33.20
2022-11-16T18:47:26.441Z,34.77
2022-11-16T18:49:53.966Z,33.03
2022-11-16T18:52:21.452Z,31.60
2022-11-16T18:54:48.956Z,32.13
2022-11-16T18:57:16.416Z,32.40
2022-11-16T18:59:43.909Z,34.70
2022-11-16T19:02:12.644Z,36.63
2022-11-16T19:04:40.739Z,35.27
2022-11-16T19:07:08.260Z,35.20
2022-11-16T19:09:35.718Z,37.70
2022-11-16T19:12:04.386Z,35.93
2022-11-16T19:14:31.874Z,36.43
2022-11-16T19:16:59.653Z,43.87
2022-11-16T19:19:29.222Z,43.87
2022-11-16T19:21:58.111Z,44.00
2022-11-16T19:24:27.954Z,48.17
2022-11-16T19:26:55.585Z,47.77
2022-11-16T19:29:23.049Z,46.67
2022-11-16T19:31:50.562Z,43.60
2022-11-16T19:34:18.116Z,42.27
2022-11-16T19:36:47.794Z,47.13
2022-11-16T19:39:36.536Z,47.83
2022-11-16T19:42:04.868Z,47.37
2022-11-16T19:44:32.388Z,44.87
2022-11-16T19:47:00.524Z,39.43
2022-11-16T19:49:28.515Z,38.07
2022-11-16T19:51:56.230Z,39.13
2022-11-16T19:54:25.145Z,36.40
2022-11-16T19:56:55.272Z,33.90
2022-11-16T19:59:23.042Z,33.07
2022-11-16T20:01:50.505Z,31.00
2022-11-16T20:04:18.001Z,30.53
2022-11-16T20:06:45.483Z,31.50
2022-11-16T20:09:13.092Z,30.40
2022-11-16T20:11:42.319Z,33.00
2022-11-16T20:14:12.010Z,33.30
2022-11-16T20:16:42.032Z,38.20
2022-11-16T20:19:11.088Z,38.33
2022-11-16T20:21:42.272Z,36.37
2022-11-16T20:24:15.916Z,37.60
2022-11-16T20:26:47.070Z,35.00
2022-11-16T20:29:17.658Z,34.50
2022-11-16T20:31:47.159Z,33.80
2022-11-16T20:34:20.436Z,33.50
2022-11-16T20:36:51.336Z,38.43
2022-11-16T20:39:21.578Z,33.63
2022-11-16T20:41:49.240Z,33.07
2022-11-16T20:44:21.411Z,35.40
2022-11-16T20:46:52.571Z,36.20
2022-11-16T20:49:20.900Z,35.43
2022-11-16T20:51:49.606Z,35.80
2022-11-16T20:54:19.855Z,30.03
2022-11-16T20:56:49.570Z,30.30
2022-11-16T20:59:17.601Z,30.63
2022-11-16T21:01:48.198Z,33.07
2022-11-16T21:04:16.574Z,29.67
2022-11-16T21:06:44.063Z,31.17
2022-11-16T21:09:15.605Z,31.57
2022-11-16T21:12:01.388Z,32.67
2022-11-16T21:14:29.236Z,32.23
2022-11-16T21:16:56.883Z,32.97
2022-11-16T21:19:24.388Z,36.87
2022-11-16T21:21:51.921Z,35.73
2022-11-16T21:24:21.821Z,39.27
2022-11-16T21:26:51.028Z,39.20
2022-11-16T21:29:18.507Z,40.00
2022-11-16T21:31:46.032Z,36.60
2022-11-16T21:34:14.027Z,38.10
2022-11-16T21:36:44.231Z,42.00
2022-11-16T21:39:11.702Z,42.47
2022-11-16T21:41:39.200Z,43.73
2022-11-16T21:44:06.789Z,46.07
2022-11-16T21:46:34.305Z,48.03
2022-11-16T21:49:01.849Z,49.13
2022-11-16T21:51:30.851Z,48.67
2022-11-16T21:53:58.460Z,49.90
2022-11-16T21:56:29.326Z,55.97
2022-11-16T21:58:56.917Z,57.33
2022-11-16T22:01:45.809Z,54.40
2022-11-16T22:04:32.881Z,45.27
2022-11-16T22:07:32.801Z,43.17
2022-11-16T22:10:02.557Z,41.53
2022-11-16T22:12:30.275Z,41.40
2022-11-16T22:15:01.942Z,39.63
2022-11-16T22:17:30.314Z,41.47
2022-11-16T22:19:57.829Z,42.67
2022-11-16T22:22:25.669Z,44.40
2022-11-16T22:24:53.180Z,41.80
2022-11-16T22:27:20.791Z,39.17
2022-11-16T22:29:48.775Z,36.77
2022-11-16T22:32:16.297Z,36.53
2022-11-16T22:34:43.774Z,36.13
2022-11-16T22:37:11.301Z,32.90
2022-11-16T22:39:39.255Z,31.73
2022-11-16T22:42:06.953Z,32.43
2022-11-16T22:44:34.470Z,32.27
2022-11-16T22:47:02.003Z,31.43
2022-11-16T22:49:29.478Z,30.70
2022-11-16T22:51:56.914Z,30.37
2022-11-16T22:54:28.487Z,29.57
2022-11-16T22:56:56.366Z,29.93
2022-11-16T22:59:23.845Z,28.80
2022-11-16T23:01:51.249Z,29.90
2022-11-16T23:04:18.638Z,29.73
2022-11-16T23:06:46.405Z,31.73
2022-11-16T23:09:13.820Z,31.17
2022-11-16T23:11:59.915Z,32.13
2022-11-16T23:14:46.075Z,33.63
2022-11-16T23:17:13.471Z,34.07
2022-11-16T23:19:59.352Z,33.07
2022-11-16T23:22:45.301Z,31.50
2022-11-16T23:25:32.012Z,43.53
2022-11-16T23:28:07.233Z,56.10
2022-11-16T23:30:35.684Z,34.53
2022-11-16T23:33:04.101Z,33.17
2022-11-16T23:35:31.604Z,30.50
2022-11-16T23:38:04.718Z,29.90
2022-11-16T23:40:38.568Z,31.03
2022-11-16T23:43:26.237Z,29.80
2022-11-16T23:45:54.758Z,30.07
2022-11-16T23:48:22.168Z,29.73
2022-11-16T23:50:49.583Z,30.60
2022-11-16T23:53:17.643Z,31.20
2022-11-16T23:55:45.056Z,31.40
2022-11-16T23:58:14.869Z,31.23
